createdAt,value
2022-10-11T00:00:44.064Z,13.97
2022-10-11T00:03:31.054Z,13.90
2022-10-11T00:05:58.501Z,13.87
2022-10-11T00:08:25.751Z,13.94
2022-10-11T00:11:02.128Z,13.83
2022-10-11T00:13:30.056Z,13.86
2022-10-11T00:15:57.980Z,13.86
2022-10-11T00:18:43.262Z,13.89
2022-10-11T00:21:15.089Z,13.85
2022-10-11T00:23:43.817Z,13.85
2022-10-11T00:26:11.965Z,13.84
2022-10-11T00:28:40.057Z,13.87
2022-10-11T00:31:14.970Z,13.84
2022-10-11T00:33:42.783Z,13.88
2022-10-11T00:36:13.764Z,13.91
2022-10-11T00:38:41.494Z,13.91
2022-10-11T00:41:08.893Z,13.91
2022-10-11T00:43:36.792Z,13.91
2022-10-11T00:46:18.972Z,13.90
2022-10-11T00:49:17.912Z,13.92
2022-10-11T00:51:55.364Z,13.92
2022-10-11T00:54:27.318Z,13.84
2022-10-11T00:57:03.071Z,13.83
2022-10-11T00:59:40.453Z,13.81
2022-10-11T01:02:10.372Z,13.87
2022-10-11T01:04:37.755Z,13.85
2022-10-11T01:07:05.160Z,13.82
2022-10-11T01:09:33.460Z,13.86
2022-10-11T01:12:06.896Z,13.83
2022-10-11T01:15:07.255Z,13.83
2022-10-11T01:17:52.689Z,13.81
2022-10-11T01:20:43.293Z,13.81
2022-10-11T01:23:34.721Z,13.76
2022-10-11T01:26:23.679Z,13.83
2022-10-11T01:29:35.268Z,13.79
2022-10-11T01:32:18.758Z,13.72
2022-10-11T01:35:01.312Z,13.85
2022-10-11T01:37:37.691Z,13.83
2022-10-11T01:40:16.184Z,13.83
2022-10-11T01:42:45.478Z,13.85
2022-10-11T01:45:19.875Z,13.91
2022-10-11T01:47:47.340Z,13.97
2022-10-11T01:50:50.789Z,13.89
2022-10-11T01:53:59.366Z,13.95
2022-10-11T01:56:52.356Z,14.00
2022-10-11T01:59:26.126Z,14.00
2022-10-11T02:02:47.166Z,13.96
2022-10-11T02:05:38.045Z,14.01
2022-10-11T02:08:56.138Z,14.04
2022-10-11T02:11:29.886Z,14.05
2022-10-11T02:14:15.505Z,14.08
2022-10-11T02:17:04.064Z,14.03
2022-10-11T02:19:42.754Z,14.07
2022-10-11T02:22:43.222Z,14.11
2022-10-11T02:25:18.919Z,14.10
2022-10-11T02:27:48.856Z,14.15
2022-10-11T02:30:17.278Z,14.11
2022-10-11T02:32:47.569Z,14.11
2022-10-11T02:35:15.648Z,14.17
2022-10-11T02:37:53.225Z,14.12
2022-10-11T02:40:23.071Z,14.16
2022-10-11T02:43:30.243Z,14.20
2022-10-11T02:46:01.415Z,14.16
2022-10-11T02:48:30.622Z,14.26
2022-10-11T02:50:59.100Z,14.21
2022-10-11T02:53:27.287Z,14.26
2022-10-11T02:55:56.040Z,14.21
2022-10-11T02:58:24.781Z,14.11
2022-10-11T03:00:52.059Z,14.25
2022-10-11T03:03:19.577Z,14.26
2022-10-11T03:05:46.966Z,14.23
2022-10-11T03:08:17.034Z,14.21
2022-10-11T03:10:44.578Z,14.24
2022-10-11T03:13:15.967Z,14.17
2022-10-11T03:16:01.914Z,14.06
2022-10-11T03:18:30.758Z,14.17
2022-10-11T03:20:58.148Z,14.11
2022-10-11T03:23:25.362Z,14.17
2022-10-11T03:25:52.615Z,14.17
2022-10-11T03:28:20.879Z,14.02
2022-10-11T03:30:50.148Z,14.10
2022-10-11T03:33:17.784Z,14.17
2022-10-11T03:35:47.529Z,14.13
2022-10-11T03:38:19.752Z,14.09
2022-10-11T03:40:47.630Z,14.12
2022-10-11T03:43:15.008Z,14.10
2022-10-11T03:45:45.244Z,14.08
2022-10-11T03:48:12.760Z,14.12
2022-10-11T03:50:40.401Z,14.13
2022-10-11T03:53:08.881Z,14.19
2022-10-11T03:55:40.319Z,14.23
2022-10-11T03:58:08.679Z,14.19
2022-10-11T04:00:36.878Z,14.26
2022-10-11T04:03:04.380Z,14.20
2022-10-11T04:05:31.724Z,14.23
2022-10-11T04:07:58.902Z,14.20
2022-10-11T04:10:26.375Z,14.24
2022-10-11T04:12:53.593Z,14.23
2022-10-11T04:15:20.902Z,14.24
2022-10-11T04:17:48.271Z,14.27
2022-10-11T04:20:15.583Z,14.31
2022-10-11T04:22:42.971Z,14.21
2022-10-11T04:25:10.607Z,14.20
2022-10-11T04:27:37.830Z,14.25
2022-10-11T04:30:06.908Z,14.21
2022-10-11T04:32:34.738Z,14.16
2022-10-11T04:35:01.913Z,14.20
2022-10-11T04:37:29.129Z,14.22
2022-10-11T04:39:56.474Z,14.13
2022-10-11T04:42:23.633Z,14.18
2022-10-11T04:44:50.878Z,14.12
2022-10-11T04:47:20.344Z,14.14
2022-10-11T04:49:47.562Z,14.16
2022-10-11T04:52:14.887Z,14.12
2022-10-11T04:54:42.226Z,14.17
2022-10-11T04:57:09.512Z,14.15
2022-10-11T04:59:37.200Z,14.13
2022-10-11T05:02:04.717Z,14.09
2022-10-11T05:04:32.151Z,14.09
2022-10-11T05:06:59.383Z,14.00
2022-10-11T05:09:27.122Z,14.01
2022-10-11T05:11:54.320Z,13.97
2022-10-11T05:14:21.483Z,13.87
2022-10-11T05:16:48.842Z,13.79
2022-10-11T05:19:16.077Z,13.78
2022-10-11T05:21:43.271Z,13.80
2022-10-11T05:24:10.986Z,13.65
2022-10-11T05:26:38.206Z,13.68
2022-10-11T05:29:05.506Z,13.77
2022-10-11T05:31:33.233Z,13.70
2022-10-11T05:34:00.485Z,13.60
2022-10-11T05:36:27.701Z,13.50
2022-10-11T05:38:55.255Z,13.47
2022-10-11T05:41:22.607Z,13.49
2022-10-11T05:43:54.791Z,13.56
2022-10-11T05:46:22.429Z,13.59
2022-10-11T05:48:49.623Z,13.62
2022-10-11T05:51:16.826Z,13.65
2022-10-11T05:53:44.232Z,13.68
2022-10-11T05:56:21.928Z,13.68
2022-10-11T05:58:51.224Z,13.71
2022-10-11T06:01:25.587Z,13.73
2022-10-11T06:03:53.613Z,13.74
2022-10-11T06:06:21.709Z,13.72
2022-10-11T06:08:49.463Z,13.74
2022-10-11T06:11:25.310Z,13.86
2022-10-11T06:13:58.227Z,13.85
2022-10-11T06:16:26.873Z,13.96
2022-10-11T06:18:56.197Z,14.03
2022-10-11T06:21:24.947Z,14.09
2022-10-11T06:23:58.263Z,14.07
2022-10-11T06:26:27.665Z,14.03
2022-10-11T06:28:54.909Z,14.09
2022-10-11T06:31:22.719Z,14.14
2022-10-11T06:33:49.907Z,14.15
2022-10-11T06:36:17.899Z,14.22
2022-10-11T06:38:45.630Z,14.30
2022-10-11T06:41:33.337Z,14.26
2022-10-11T06:44:00.767Z,14.34
2022-10-11T06:46:28.400Z,14.33
2022-10-11T06:48:56.513Z,14.36
2022-10-11T06:51:25.416Z,14.42
2022-10-11T06:53:56.837Z,14.61
2022-10-11T06:56:26.777Z,15.02
2022-10-11T06:58:55.487Z,15.44
2022-10-11T07:01:23.995Z,15.64
2022-10-11T07:03:53.995Z,15.83
2022-10-11T07:06:27.615Z,15.87
2022-10-11T07:08:55.647Z,15.98
2022-10-11T07:11:27.199Z,16.20
2022-10-11T07:13:59.432Z,16.59
2022-10-11T07:16:28.980Z,17.02
2022-10-11T07:19:00.905Z,17.10
2022-10-11T07:21:31.502Z,17.14
2022-10-11T07:24:17.041Z,17.31
2022-10-11T07:26:44.548Z,17.43
2022-10-11T07:29:12.775Z,17.45
2022-10-11T07:31:42.525Z,17.73
2022-10-11T07:34:10.900Z,17.94
2022-10-11T07:36:38.133Z,18.11
2022-10-11T07:39:08.317Z,18.22
2022-10-11T07:41:39.689Z,18.51
2022-10-11T07:44:09.085Z,20.13
2022-10-11T07:46:36.593Z,22.48
2022-10-11T07:49:03.974Z,23.15
2022-10-11T07:51:32.864Z,22.37
2022-10-11T07:54:04.726Z,22.14
2022-10-11T07:56:34.344Z,21.48
2022-10-11T07:59:05.542Z,21.17
2022-10-11T08:01:33.514Z,20.93
2022-10-11T08:04:01.000Z,20.87
2022-10-11T08:06:32.643Z,21.09
2022-10-11T08:09:01.349Z,21.88
2022-10-11T08:11:35.949Z,23.47
2022-10-11T08:14:09.093Z,23.15
2022-10-11T08:16:39.343Z,23.85
2022-10-11T08:19:07.722Z,24.58
2022-10-11T08:21:35.101Z,24.05
2022-10-11T08:24:04.587Z,22.73
2022-10-11T08:26:34.099Z,21.97
2022-10-11T08:29:05.339Z,21.28
2022-10-11T08:31:34.902Z,20.52
2022-10-11T08:34:02.831Z,19.64
2022-10-11T08:36:30.047Z,19.01
2022-10-11T08:38:58.390Z,18.60
2022-10-11T08:41:41.005Z,18.33
2022-10-11T08:44:52.155Z,17.95
2022-10-11T08:47:34.053Z,17.75
2022-10-11T08:50:03.789Z,17.58
2022-10-11T08:53:23.989Z,17.37
2022-10-11T08:55:54.253Z,17.36
2022-10-11T08:58:41.755Z,17.23
2022-10-11T09:01:20.551Z,17.24
2022-10-11T09:03:50.008Z,17.26
2022-10-11T09:06:48.971Z,17.27
2022-10-11T09:09:48.924Z,17.17
2022-10-11T09:12:19.151Z,17.12
2022-10-11T09:15:24.279Z,17.01
2022-10-11T09:18:22.122Z,17.07
2022-10-11T09:21:25.087Z,17.20
2022-10-11T09:24:08.402Z,17.46
2022-10-11T09:27:01.554Z,17.49
2022-10-11T09:29:46.153Z,17.64
2022-10-11T09:32:20.942Z,18.22
2022-10-11T09:35:09.423Z,18.77
2022-10-11T09:38:07.631Z,18.57
2022-10-11T09:41:02.149Z,18.21
2022-10-11T09:43:29.443Z,18.00
2022-10-11T09:45:56.904Z,17.72
2022-10-11T09:48:39.119Z,17.40
2022-10-11T09:51:31.655Z,16.99
2022-10-11T09:54:06.535Z,16.82
2022-10-11T09:56:40.796Z,16.83
2022-10-11T09:59:36.245Z,16.65
2022-10-11T10:02:24.051Z,16.48
2022-10-11T10:05:09.409Z,16.41
2022-10-11T10:07:41.102Z,16.40
2022-10-11T10:10:43.576Z,16.28
2022-10-11T10:13:24.382Z,16.25
2022-10-11T10:15:55.963Z,16.23
2022-10-11T10:18:34.486Z,16.26
2022-10-11T10:21:04.367Z,16.28
2022-10-11T10:23:37.427Z,16.41
2022-10-11T10:26:24.692Z,16.64
2022-10-11T10:29:16.871Z,16.84
2022-10-11T10:32:13.334Z,17.03
2022-10-11T10:35:27.585Z,17.06
2022-10-11T10:38:51.204Z,17.00
2022-10-11T10:41:20.019Z,17.03
2022-10-11T10:44:00.791Z,16.97
2022-10-11T10:46:34.193Z,17.17
2022-10-11T10:49:54.219Z,17.50
2022-10-11T10:52:46.367Z,17.68
2022-10-11T10:55:34.765Z,17.73
2022-10-11T10:58:26.583Z,17.72
2022-10-11T11:01:03.047Z,17.49
2022-10-11T11:03:51.950Z,17.57
2022-10-11T11:06:48.347Z,17.79
2022-10-11T11:09:41.203Z,18.03
2022-10-11T11:12:38.083Z,18.02
2022-10-11T11:15:27.175Z,17.90
2022-10-11T11:18:28.987Z,17.59
2022-10-11T11:21:28.411Z,17.52
2022-10-11T11:24:08.506Z,17.40
2022-10-11T11:27:01.769Z,17.30
2022-10-11T11:29:55.695Z,17.40
2022-10-11T11:33:08.533Z,18.04
2022-10-11T11:35:46.068Z,19.45
2022-10-11T11:38:59.730Z,20.13
2022-10-11T11:41:37.002Z,20.73
2022-10-11T11:44:27.306Z,22.10
2022-10-11T11:47:11.340Z,25.56
2022-10-11T11:49:46.575Z,24.68
2022-10-11T11:52:48.259Z,25.28
2022-10-11T11:55:42.370Z,26.80
2022-10-11T11:58:21.893Z,29.42
2022-10-11T12:01:31.491Z,31.59
2022-10-11T12:04:11.677Z,37.80
2022-10-11T12:06:47.878Z,39.00
2022-10-11T12:09:32.636Z,42.92
2022-10-11T12:12:05.215Z,44.42
2022-10-11T12:14:42.642Z,45.30
2022-10-11T12:17:20.977Z,45.76
2022-10-11T12:20:31.731Z,46.18
2022-10-11T12:23:01.137Z,46.88
2022-10-11T12:25:28.769Z,46.94
2022-10-11T12:28:21.676Z,47.87
2022-10-11T12:30:50.874Z,48.13
2022-10-11T12:33:32.680Z,48.05
2022-10-11T12:36:31.599Z,48.45
2022-10-11T12:39:20.825Z,50.10
2022-10-11T12:41:51.655Z,50.60
2022-10-11T12:44:18.799Z,51.10
2022-10-11T12:46:54.748Z,51.66
2022-10-11T12:49:35.583Z,52.13
2022-10-11T12:52:17.946Z,52.20
2022-10-11T12:55:17.826Z,52.03
2022-10-11T12:58:12.461Z,50.15
2022-10-11T13:00:39.881Z,50.54
2022-10-11T13:03:33.651Z,50.83
2022-10-11T13:06:15.321Z,51.11
2022-10-11T13:08:50.307Z,51.42
2022-10-11T13:11:24.341Z,48.37
2022-10-11T13:14:19.122Z,46.08
2022-10-11T13:16:57.815Z,47.01
2022-10-11T13:19:26.990Z,47.89
2022-10-11T13:21:58.999Z,47.84
2022-10-11T13:24:36.307Z,47.71
2022-10-11T13:27:06.235Z,48.04
2022-10-11T13:29:41.070Z,48.23
2022-10-11T13:32:22.415Z,48.50
2022-10-11T13:37:30.671Z,48.85
2022-10-11T13:39:58.857Z,48.77
2022-10-11T13:42:32.823Z,48.45
2022-10-11T13:45:01.204Z,47.92
2022-10-11T13:47:31.791Z,48.24
2022-10-11T13:50:32.105Z,48.70
2022-10-11T13:53:22.108Z,48.84
2022-10-11T13:55:57.358Z,49.25
2022-10-11T13:58:32.671Z,48.25
2022-10-11T14:01:16.655Z,46.69
2022-10-11T14:03:54.972Z,46.42
2022-10-11T14:06:22.513Z,45.99
2022-10-11T14:08:57.031Z,45.77
2022-10-11T14:11:39.954Z,45.43
2022-10-11T14:14:35.756Z,45.59
2022-10-11T14:17:20.314Z,44.24
2022-10-11T14:20:11.382Z,43.50
2022-10-11T14:22:39.321Z,43.14
2022-10-11T14:25:07.099Z,43.09
2022-10-11T14:27:34.677Z,43.43
2022-10-11T14:32:53.821Z,43.26
2022-10-11T14:35:29.949Z,43.85
2022-10-11T14:37:58.339Z,43.63
2022-10-11T14:40:30.491Z,43.35
2022-10-11T14:42:58.091Z,42.54
2022-10-11T14:45:26.326Z,42.30
2022-10-11T14:47:53.681Z,41.78
2022-10-11T14:51:00.974Z,41.22
2022-10-11T14:53:28.324Z,38.70
2022-10-11T14:55:56.305Z,38.61
2022-10-11T14:58:23.545Z,37.95
2022-10-11T15:00:50.803Z,37.61
2022-10-11T15:03:18.292Z,37.30
2022-10-11T15:05:45.577Z,35.57
2022-10-11T15:08:15.044Z,33.41
2022-10-11T15:10:42.779Z,31.75
2022-10-11T15:13:10.121Z,30.32
2022-10-11T15:15:41.103Z,29.17
2022-10-11T15:18:13.663Z,27.50
2022-10-11T15:20:44.645Z,26.11
2022-10-11T15:23:12.634Z,25.34
2022-10-11T15:25:42.271Z,24.76
2022-10-11T15:28:25.979Z,24.22
2022-10-11T15:30:54.174Z,23.92
2022-10-11T15:33:22.410Z,23.44
2022-10-11T15:35:49.647Z,23.00
2022-10-11T15:38:24.053Z,22.60
2022-10-11T15:40:52.466Z,22.27
2022-10-11T15:43:24.684Z,21.75
2022-10-11T15:45:54.339Z,21.55
2022-10-11T15:48:26.368Z,21.20
2022-10-11T15:50:54.927Z,20.95
2022-10-11T15:53:28.548Z,20.68
2022-10-11T15:56:03.269Z,20.51
2022-10-11T15:58:39.014Z,20.34
2022-10-11T16:01:18.806Z,20.00
2022-10-11T16:03:48.623Z,19.83
2022-10-11T16:06:17.980Z,19.70
2022-10-11T16:08:45.829Z,19.45
2022-10-11T16:11:13.304Z,19.24
2022-10-11T16:13:40.706Z,19.08
2022-10-11T16:16:10.096Z,18.89
2022-10-11T16:18:38.202Z,18.69
2022-10-11T16:21:13.274Z,18.57
2022-10-11T16:23:40.559Z,18.45
2022-10-11T16:26:13.588Z,18.32
2022-10-11T16:28:42.114Z,17.82
2022-10-11T16:31:14.673Z,17.72
2022-10-11T16:33:46.059Z,17.65
2022-10-11T16:36:36.616Z,17.56
2022-10-11T16:39:20.053Z,17.47
2022-10-11T16:41:48.037Z,17.44
2022-10-11T16:44:20.294Z,17.37
2022-10-11T16:46:49.028Z,17.23
2022-10-11T16:49:19.822Z,17.16
2022-10-11T16:51:47.059Z,17.08
2022-10-11T16:54:19.293Z,16.97
2022-10-11T16:56:49.285Z,16.87
2022-10-11T16:59:17.246Z,16.76
2022-10-11T17:01:45.251Z,16.65
2022-10-11T17:04:13.346Z,16.54
2022-10-11T17:06:43.907Z,16.44
2022-10-11T17:09:11.900Z,16.30
2022-10-11T17:11:39.332Z,16.14
2022-10-11T17:14:07.753Z,16.03
2022-10-11T17:16:35.732Z,15.92
2022-10-11T17:19:04.117Z,15.78
2022-10-11T17:21:31.443Z,15.60
2022-10-11T17:23:58.957Z,15.47
2022-10-11T17:26:27.687Z,15.39
2022-10-11T17:29:00.430Z,15.37
2022-10-11T17:31:29.728Z,15.28
2022-10-11T17:34:01.355Z,15.18
2022-10-11T17:36:35.799Z,15.10
2022-10-11T17:39:08.275Z,14.99
2022-10-11T17:41:36.000Z,14.87
2022-10-11T17:44:04.415Z,14.84
2022-10-11T17:46:34.941Z,14.81
2022-10-11T17:49:06.711Z,14.70
2022-10-11T17:51:36.570Z,14.62
2022-10-11T17:54:05.163Z,14.59
2022-10-11T17:56:37.640Z,14.49
2022-10-11T17:59:06.271Z,14.40
2022-10-11T18:01:34.046Z,14.33
2022-10-11T18:04:04.984Z,14.27
2022-10-11T18:06:39.659Z,14.22
2022-10-11T18:09:07.263Z,14.14
2022-10-11T18:11:35.119Z,14.11
2022-10-11T18:14:02.513Z,14.06
2022-10-11T18:16:31.727Z,14.02
2022-10-11T18:18:59.208Z,13.96
2022-10-11T18:21:33.634Z,13.87
2022-10-11T18:24:17.056Z,13.77
2022-10-11T18:26:46.143Z,13.68
2022-10-11T18:29:14.349Z,13.62
2022-10-11T18:31:42.431Z,13.58
2022-10-11T18:34:13.061Z,13.53
2022-10-11T18:36:40.567Z,13.48
2022-10-11T18:39:12.545Z,13.45
2022-10-11T18:41:44.607Z,13.40
2022-10-11T18:44:15.723Z,13.34
2022-10-11T18:46:44.258Z,13.28
2022-10-11T18:49:12.925Z,13.26
2022-10-11T18:51:42.325Z,13.19
2022-10-11T18:54:14.090Z,13.13
2022-10-11T18:56:44.556Z,13.06
2022-10-11T18:59:12.767Z,13.00
2022-10-11T19:01:44.466Z,12.95
2022-10-11T19:04:16.117Z,12.92
2022-10-11T19:06:50.675Z,12.87
2022-10-11T19:09:26.172Z,12.80
2022-10-11T19:11:56.507Z,12.72
2022-10-11T19:14:28.796Z,12.72
2022-10-11T19:16:56.892Z,12.70
2022-10-11T19:19:29.216Z,12.65
2022-10-11T19:21:57.448Z,12.65
2022-10-11T19:24:28.410Z,12.63
2022-10-11T19:27:02.029Z,12.58
2022-10-11T19:29:30.976Z,12.55
2022-10-11T19:32:05.572Z,12.50
2022-10-11T19:34:33.413Z,12.47
2022-10-11T19:37:01.381Z,12.44
2022-10-11T19:39:29.633Z,12.43
2022-10-11T19:41:57.229Z,12.38
2022-10-11T19:44:24.591Z,12.34
2022-10-11T19:46:52.968Z,12.31
2022-10-11T19:49:25.897Z,12.26
2022-10-11T19:51:55.558Z,12.26
2022-10-11T19:54:23.689Z,12.20
2022-10-11T19:56:51.141Z,12.17
2022-10-11T19:59:19.739Z,12.12
2022-10-11T20:01:52.294Z,12.06
2022-10-11T20:07:08.822Z,11.94
2022-10-11T20:09:36.688Z,11.94
2022-10-11T20:12:04.152Z,11.88
2022-10-11T20:14:31.607Z,11.85
2022-10-11T20:17:04.838Z,11.79
2022-10-11T20:19:32.292Z,11.81
2022-10-11T20:22:01.002Z,11.75
2022-10-11T20:24:33.121Z,11.69
2022-10-11T20:27:05.544Z,11.65
2022-10-11T20:29:33.176Z,11.62
2022-10-11T20:32:00.695Z,11.60
2022-10-11T20:34:28.411Z,11.62
2022-10-11T20:36:56.702Z,11.62
2022-10-11T20:39:24.254Z,11.62
2022-10-11T20:41:51.858Z,11.64
2022-10-11T20:44:19.049Z,11.61
2022-10-11T20:46:46.260Z,11.60
2022-10-11T20:49:13.823Z,11.56
2022-10-11T20:51:42.740Z,11.55
2022-10-11T20:54:11.127Z,11.53
2022-10-11T20:56:39.401Z,11.52
2022-10-11T20:59:07.858Z,11.49
2022-10-11T21:01:41.262Z,11.46
2022-10-11T21:04:20.111Z,11.37
2022-10-11T21:06:48.794Z,11.35
2022-10-11T21:09:17.224Z,11.32
2022-10-11T21:11:44.765Z,11.26
2022-10-11T21:14:12.593Z,11.20
2022-10-11T21:16:39.935Z,11.18
2022-10-11T21:19:07.597Z,11.18
2022-10-11T21:21:35.019Z,11.17
2022-10-11T21:24:03.460Z,11.13
2022-10-11T21:26:31.115Z,11.10
2022-10-11T21:29:04.098Z,11.07
2022-10-11T21:31:34.275Z,11.07
2022-10-11T21:34:05.158Z,11.06
2022-10-11T21:36:34.021Z,11.04
2022-10-11T21:39:01.249Z,11.02
2022-10-11T21:41:31.579Z,11.01
2022-10-11T21:44:01.025Z,11.01
2022-10-11T21:49:19.217Z,10.95
2022-10-11T21:51:46.503Z,10.93
2022-10-11T21:54:14.077Z,10.93
2022-10-11T21:56:42.076Z,10.91
2022-10-11T21:59:12.305Z,10.87
2022-10-11T22:01:41.913Z,10.77
2022-10-11T22:04:10.107Z,10.63
2022-10-11T22:06:38.480Z,10.45
2022-10-11T22:09:07.710Z,10.30
2022-10-11T22:11:35.835Z,10.22
2022-10-11T22:14:03.516Z,10.20
2022-10-11T22:16:30.752Z,10.18
2022-10-11T22:18:57.980Z,10.16
2022-10-11T22:21:25.620Z,10.09
2022-10-11T22:23:54.858Z,10.03
2022-10-11T22:26:32.345Z,9.96
2022-10-11T22:29:00.973Z,10.00
2022-10-11T22:31:29.397Z,10.05
2022-10-11T22:33:59.948Z,10.05
2022-10-11T22:36:30.576Z,9.98
2022-10-11T22:38:58.750Z,9.95
2022-10-11T22:41:26.245Z,9.93
2022-10-11T22:43:53.664Z,9.94
2022-10-11T22:46:20.961Z,9.92
2022-10-11T22:48:48.209Z,9.90
2022-10-11T22:51:15.725Z,9.87
2022-10-11T22:53:42.999Z,9.85
2022-10-11T22:56:11.297Z,9.83
2022-10-11T22:58:38.972Z,9.82
2022-10-11T23:01:11.368Z,9.83
2022-10-11T23:03:38.938Z,9.82
2022-10-11T23:06:06.856Z,9.83
2022-10-11T23:08:34.361Z,9.79
2022-10-11T23:11:06.958Z,9.73
2022-10-11T23:13:35.765Z,9.73
2022-10-11T23:16:11.398Z,9.69
2022-10-11T23:18:40.049Z,9.66
2022-10-11T23:21:08.196Z,9.64
2022-10-11T23:23:36.343Z,9.61
2022-10-11T23:26:08.799Z,9.61
2022-10-11T23:28:36.737Z,9.57
2022-10-11T23:31:18.448Z,9.51
2022-10-11T23:33:47.315Z,9.51
2022-10-11T23:36:21.006Z,9.48
2022-10-11T23:38:56.758Z,9.44
2022-10-11T23:41:30.052Z,9.41
2022-10-11T23:43:58.643Z,9.34
2022-10-11T23:46:25.975Z,9.29
2022-10-11T23:48:53.255Z,9.25
2022-10-11T23:51:21.238Z,9.20
2022-10-11T23:53:48.435Z,9.17
2022-10-11T23:56:15.566Z,9.16
2022-10-11T23:58:43.032Z,9.16
